Time,TemperatureF,DewpointF,PressureIn,WindDirection,WindDirectionDegrees,WindSpeedMPH,WindSpeedGustMPH,Humidity,HourlyPrecipIn,Conditions,Clouds,dailyrainin,SoftwareType,DateUTC
2013-09-22 00:00:00,62.2,52.7,29.86,NNW,338,4.0,-999.0,71,0.00,,,0.00,Wunderground v.1.15,2013-09-22 05:00:00,
2013-09-22 00:05:00,62.2,52.7,29.86,NNW,338,4.0,-999.0,71,0.00,,,0.00,Wunderground v.1.15,2013-09-22 05:05:00,
2013-09-22 00:10:00,62.2,52.7,29.86,NNW,338,4.0,-999.0,71,0.00,,,0.00,Wunderground v.1.15,2013-09-22 05:10:00,
2013-09-22 00:15:00,62.2,52.7,29.86,NNW,338,4.0,-999.0,71,0.00,,,0.00,Wunderground v.1.15,2013-09-22 05:15:00,
2013-09-22 00:20:00,62.2,52.7,29.86,NNW,338,4.0,-999.0,71,0.00,,,0.00,Wunderground v.1.15,2013-09-22 05:20:00,
2013-09-22 00:25:00,62.2,52.7,29.86,NNW,338,4.0,-999.0,71,0.00,,,0.00,Wunderground v.1.15,2013-09-22 05:25:00,
2013-09-22 00:30:00,62.2,52.7,29.86,NNW,338,4.0,-999.0,71,0.00,,,0.00,Wunderground v.1.15,2013-09-22 05:30:00,
2013-09-22 00:35:00,62.2,52.7,29.86,NNW,338,4.0,-999.0,71,0.00,,,0.00,Wunderground v.1.15,2013-09-22 05:35:00,
2013-09-22 00:40:00,62.2,52.7,29.86,NNW,338,4.0,-999.0,71,0.00,,,0.00,Wunderground v.1.15,2013-09-22 05:40:00,
2013-09-22 00:45:00,61.2,52.5,29.86,NW,315,3.0,-999.0,73,0.00,,,0.00,Wunderground v.1.15,2013-09-22 05:45:00,
2013-09-22 00:50:00,61.2,52.5,29.86,NW,315,3.0,-999.0,73,0.00,,,0.00,Wunderground v.1.15,2013-09-22 05:50:00,
2013-09-22 00:55:00,61.2,52.5,29.86,NW,315,3.0,-999.0,73,0.00,,,0.00,Wunderground v.1.15,2013-09-22 05:55:00,
2013-09-22 01:00:00,61.2,52.5,29.86,NW,315,3.0,-999.0,73,0.00,,,0.00,Wunderground v.1.15,2013-09-22 06:00:00,
2013-09-22 01:05:00,61.2,52.5,29.86,NW,315,3.0,-999.0,73,0.00,,,0.00,Wunderground v.1.15,2013-09-22 06:05:00,
2013-09-22 01:10:00,61.2,52.5,29.86,NW,315,3.0,-999.0,73,0.00,,,0.00,Wunderground v.1.15,2013-09-22 06:10:00,
2013-09-22 01:15:00,61.2,52.5,29.86,NW,315,3.0,-999.0,73,0.00,,,0.00,Wunderground v.1.15,2013-09-22 06:15:00,
2013-09-22 01:20:00,61.2,52.5,29.86,NW,315,3.0,-999.0,73,0.00,,,0.00,Wunderground v.1.15,2013-09-22 06:20:00,
2013-09-22 01:25:00,61.2,52.5,29.86,NW,315,3.0,-999.0,73,0.00,,,0.00,Wunderground v.1.15,2013-09-22 06:25:00,
2013-09-22 01:30:00,61.2,52.5,29.86,NW,315,3.0,-999.0,73,0.00,,,0.00,Wunderground v.1.15,2013-09-22 06:30:00,
2013-09-22 01:35:00,61.2,52.5,29.86,NW,315,3.0,-999.0,73,0.00,,,0.00,Wunderground v.1.15,2013-09-22 06:35:00,
2013-09-22 01:40:00,61.2,52.5,29.86,NW,315,3.0,-999.0,73,0.00,,,0.00,Wunderground v.1.15,2013-09-22 06:40:00,
2013-09-22 01:45:00,60.9,51.8,29.86,NNW,338,3.0,-999.0,72,0.00,,,0.00,Wunderground v.1.15,2013-09-22 06:45:00,
2013-09-22 01:50:00,60.9,51.8,29.86,NNW,338,3.0,-999.0,72,0.00,,,0.00,Wunderground v.1.15,2013-09-22 06:50:00,
2013-09-22 01:55:00,60.9,51.8,29.86,NNW,338,3.0,-999.0,72,0.00,,,0.00,Wunderground v.1.15,2013-09-22 06:55:00,
2013-09-22 02:00:00,60.9,51.8,29.86,NNW,338,3.0,-999.0,72,0.00,,,0.00,Wunderground v.1.15,2013-09-22 07:00:00,
2013-09-22 02:05:00,60.9,51.8,29.86,NNW,338,3.0,-999.0,72,0.00,,,0.00,Wunderground v.1.15,2013-09-22 07:05:00,
2013-09-22 02:10:00,60.9,51.8,29.86,NNW,338,3.0,-999.0,72,0.00,,,0.00,Wunderground v.1.15,2013-09-22 07:10:00,
2013-09-22 02:15:00,60.5,51.8,29.86,NNW,338,3.0,-999.0,73,0.00,,,0.00,Wunderground v.1.15,2013-09-22 07:15:00,
2013-09-22 02:20:00,60.5,51.8,29.86,NNW,338,3.0,-999.0,73,0.00,,,0.00,Wunderground v.1.15,2013-09-22 07:20:00,
2013-09-22 02:25:00,60.5,51.8,29.86,NNW,338,3.0,-999.0,73,0.00,,,0.00,Wunderground v.1.15,2013-09-22 07:25:00,
2013-09-22 02:30:00,60.5,51.8,29.86,NNW,338,3.0,-999.0,73,0.00,,,0.00,Wunderground v.1.15,2013-09-22 07:30:00,
2013-09-22 02:35:00,60.5,51.8,29.86,NNW,338,3.0,-999.0,73,0.00,,,0.00,Wunderground v.1.15,2013-09-22 07:35:00,
2013-09-22 02:40:00,60.5,51.8,29.86,NNW,338,3.0,-999.0,73,0.00,,,0.00,Wunderground v.1.15,2013-09-22 07:40:00,
2013-09-22 02:45:00,60.0,51.3,29.85,NNW,338,1.0,-999.0,73,0.00,,,0.00,Wunderground v.1.15,2013-09-22 07:45:00,
2013-09-22 02:50:00,60.0,51.3,29.85,NNW,338,1.0,-999.0,73,0.00,,,0.00,Wunderground v.1.15,2013-09-22 07:50:00,
2013-09-22 02:55:00,60.0,51.3,29.85,NNW,338,1.0,-999.0,73,0.00,,,0.00,Wunderground v.1.15,2013-09-22 07:55:00,
2013-09-22 03:00:00,60.0,51.3,29.85,NNW,338,1.0,-999.0,73,0.00,,,0.00,Wunderground v.1.15,2013-09-22 08:00:00,
2013-09-22 03:05:00,60.0,51.3,29.85,NNW,338,1.0,-999.0,73,0.00,,,0.00,Wunderground v.1.15,2013-09-22 08:05:00,
2013-09-22 03:10:00,60.0,51.3,29.85,NNW,338,1.0,-999.0,73,0.00,,,0.00,Wunderground v.1.15,2013-09-22 08:10:00,
2013-09-22 03:15:00,59.6,51.7,29.84,N/A,-737280,0.0,-999.0,75,0.00,,,0.00,Wunderground v.1.15,2013-09-22 08:15:00,
2013-09-22 03:20:00,59.6,51.7,29.84,N/A,-737280,0.0,-999.0,75,0.00,,,0.00,Wunderground v.1.15,2013-09-22 08:20:00,
2013-09-22 03:25:00,59.6,51.7,29.84,N/A,-737280,0.0,-999.0,75,0.00,,,0.00,Wunderground v.1.15,2013-09-22 08:25:00,
2013-09-22 03:30:00,59.6,51.7,29.84,N/A,-737280,0.0,-999.0,75,0.00,,,0.00,Wunderground v.1.15,2013-09-22 08:30:00,
2013-09-22 03:35:00,59.6,51.7,29.84,N/A,-737280,0.0,-999.0,75,0.00,,,0.00,Wunderground v.1.15,2013-09-22 08:35:00,
2013-09-22 03:40:00,59.6,51.7,29.84,N/A,-737280,0.0,-999.0,75,0.00,,,0.00,Wunderground v.1.15,2013-09-22 08:40:00,
2013-09-22 03:45:00,59.7,51.8,29.84,NW,315,1.0,-999.0,75,0.00,,,0.00,Wunderground v.1.15,2013-09-22 08:45:00,
2013-09-22 03:50:00,59.7,51.8,29.84,NW,315,1.0,-999.0,75,0.00,,,0.00,Wunderground v.1.15,2013-09-22 08:50:00,
2013-09-22 03:55:00,59.7,51.8,29.84,NW,315,1.0,-999.0,75,0.00,,,0.00,Wunderground v.1.15,2013-09-22 08:55:00,
2013-09-22 04:00:00,59.7,51.8,29.84,NW,315,1.0,-999.0,75,0.00,,,0.00,Wunderground v.1.15,2013-09-22 09:00:00,
2013-09-22 04:05:00,59.7,51.8,29.84,NW,315,1.0,-999.0,75,0.00,,,0.00,Wunderground v.1.15,2013-09-22 09:05:00,
2013-09-22 04:10:00,59.7,51.8,29.84,NW,315,1.0,-999.0,75,0.00,,,0.00,Wunderground v.1.15,2013-09-22 09:10:00,
2013-09-22 04:15:00,59.8,51.1,29.84,NW,315,1.0,-999.0,73,0.00,,,0.00,Wunderground v.1.15,2013-09-22 09:15:00,
2013-09-22 04:20:00,59.8,51.1,29.84,NW,315,1.0,-999.0,73,0.00,,,0.00,Wunderground v.1.15,2013-09-22 09:20:00,
2013-09-22 04:25:00,59.8,51.1,29.84,NW,315,1.0,-999.0,73,0.00,,,0.00,Wunderground v.1.15,2013-09-22 09:25:00,
2013-09-22 04:30:00,59.8,51.1,29.84,NW,315,1.0,-999.0,73,0.00,,,0.00,Wunderground v.1.15,2013-09-22 09:30:00,
2013-09-22 04:35:00,59.8,51.1,29.84,NW,315,1.0,-999.0,73,0.00,,,0.00,Wunderground v.1.15,2013-09-22 09:35:00,
2013-09-22 04:40:00,59.8,51.1,29.84,NW,315,1.0,-999.0,73,0.00,,,0.00,Wunderground v.1.15,2013-09-22 09:40:00,
2013-09-22 04:45:00,58.2,51.0,29.84,NW,315,1.0,-999.0,77,0.00,,,0.00,Wunderground v.1.15,2013-09-22 09:45:00,
2013-09-22 04:50:00,58.2,51.0,29.84,NW,315,1.0,-999.0,77,0.00,,,0.00,Wunderground v.1.15,2013-09-22 09:50:00,
2013-09-22 04:55:00,58.2,51.0,29.84,NW,315,1.0,-999.0,77,0.00,,,0.00,Wunderground v.1.15,2013-09-22 09:55:00,
2013-09-22 05:00:00,58.2,51.0,29.84,NW,315,1.0,-999.0,77,0.00,,,0.00,Wunderground v.1.15,2013-09-22 10:00:00,
2013-09-22 05:05:00,58.2,51.0,29.84,NW,315,1.0,-999.0,77,0.00,,,0.00,Wunderground v.1.15,2013-09-22 10:05:00,
2013-09-22 05:10:00,58.2,51.0,29.84,NW,315,1.0,-999.0,77,0.00,,,0.00,Wunderground v.1.15,2013-09-22 10:10:00,
2013-09-22 05:15:00,59.5,50.8,29.85,NW,315,3.0,-999.0,73,0.00,,,0.00,Wunderground v.1.15,2013-09-22 10:15:00,
2013-09-22 05:20:00,59.5,50.8,29.85,NW,315,3.0,-999.0,73,0.00,,,0.00,Wunderground v.1.15,2013-09-22 10:20:00,
2013-09-22 05:25:00,59.5,50.8,29.85,NW,315,3.0,-999.0,73,0.00,,,0.00,Wunderground v.1.15,2013-09-22 10:25:00,
2013-09-22 05:30:00,59.5,50.8,29.85,NW,315,3.0,-999.0,73,0.00,,,0.00,Wunderground v.1.15,2013-09-22 10:30:00,
2013-09-22 05:35:00,59.5,50.8,29.85,NW,315,3.0,-999.0,73,0.00,,,0.00,Wunderground v.1.15,2013-09-22 10:35:00,
2013-09-22 05:40:00,59.5,50.8,29.85,NW,315,3.0,-999.0,73,0.00,,,0.00,Wunderground v.1.15,2013-09-22 10:40:00,
2013-09-22 05:45:00,58.9,50.6,29.85,NW,315,4.0,-999.0,74,0.00,,,0.00,Wunderground v.1.15,2013-09-22 10:45:00,
2013-09-22 05:50:00,58.9,50.6,29.85,NW,315,4.0,-999.0,74,0.00,,,0.00,Wunderground v.1.15,2013-09-22 10:50:00,
2013-09-22 05:55:00,58.9,50.6,29.85,NW,315,4.0,-999.0,74,0.00,,,0.00,Wunderground v.1.15,2013-09-22 10:55:00,
2013-09-22 06:00:00,58.9,50.6,29.85,NW,315,4.0,-999.0,74,0.00,,,0.00,Wunderground v.1.15,2013-09-22 11:00:00,
2013-09-22 06:05:00,58.9,50.6,29.85,NW,315,4.0,-999.0,74,0.00,,,0.00,Wunderground v.1.15,2013-09-22 11:05:00,
2013-09-22 06:10:00,58.9,50.6,29.85,NW,315,4.0,-999.0,74,0.00,,,0.00,Wunderground v.1.15,2013-09-22 11:10:00,
2013-09-22 06:15:00,57.0,50.5,29.86,WNW,293,2.0,-999.0,79,0.00,,,0.00,Wunderground v.1.15,2013-09-22 11:15:00,
2013-09-22 06:20:00,57.0,50.5,29.86,WNW,293,2.0,-999.0,79,0.00,,,0.00,Wunderground v.1.15,2013-09-22 11:20:00,
2013-09-22 06:25:00,57.0,50.5,29.86,WNW,293,2.0,-999.0,79,0.00,,,0.00,Wunderground v.1.15,2013-09-22 11:25:00,
2013-09-22 06:30:00,57.0,50.5,29.86,WNW,293,2.0,-999.0,79,0.00,,,0.00,Wunderground v.1.15,2013-09-22 11:30:00,
2013-09-22 06:35:00,57.0,50.5,29.86,WNW,293,2.0,-999.0,79,0.00,,,0.00,Wunderground v.1.15,2013-09-22 11:35:00,
2013-09-22 06:40:00,57.0,50.5,29.86,WNW,293,2.0,-999.0,79,0.00,,,0.00,Wunderground v.1.15,2013-09-22 11:40:00,
2013-09-22 06:45:00,55.4,50.0,29.86,NW,315,1.0,-999.0,82,0.00,,,0.00,Wunderground v.1.15,2013-09-22 11:45:00,
2013-09-22 06:50:00,55.4,50.0,29.86,NW,315,1.0,-999.0,82,0.00,,,0.00,Wunderground v.1.15,2013-09-22 11:50:00,
2013-09-22 06:55:00,55.4,50.0,29.86,NW,315,1.0,-999.0,82,0.00,,,0.00,Wunderground v.1.15,2013-09-22 11:55:00,
2013-09-22 07:00:00,55.4,50.0,29.86,NW,315,1.0,-999.0,82,0.00,,,0.00,Wunderground v.1.15,2013-09-22 12:00:00,
2013-09-22 07:05:00,55.4,50.0,29.86,NW,315,1.0,-999.0,82,0.00,,,0.00,Wunderground v.1.15,2013-09-22 12:05:00,
2013-09-22 07:10:00,55.4,50.0,29.86,NW,315,1.0,-999.0,82,0.00,,,0.00,Wunderground v.1.15,2013-09-22 12:10:00,
2013-09-22 07:15:00,56.7,50.3,29.86,NNW,338,0.0,-999.0,79,0.00,,,0.00,Wunderground v.1.15,2013-09-22 12:15:00,
2013-09-22 07:20:00,56.7,50.3,29.86,NNW,338,0.0,-999.0,79,0.00,,,0.00,Wunderground v.1.15,2013-09-22 12:20:00,
2013-09-22 07:25:00,56.7,50.3,29.86,NNW,338,0.0,-999.0,79,0.00,,,0.00,Wunderground v.1.15,2013-09-22 12:25:00,
2013-09-22 07:30:00,56.7,50.3,29.86,NNW,338,0.0,-999.0,79,0.00,,,0.00,Wunderground v.1.15,2013-09-22 12:30:00,
2013-09-22 07:35:00,56.7,50.3,29.86,NNW,338,0.0,-999.0,79,0.00,,,0.00,Wunderground v.1.15,2013-09-22 12:35:00,
2013-09-22 07:40:00,56.7,50.3,29.86,NNW,338,0.0,-999.0,79,0.00,,,0.00,Wunderground v.1.15,2013-09-22 12:40:00,
2013-09-22 07:45:00,59.2,51.6,29.87,North,0,0.0,-999.0,76,0.00,,,0.00,Wunderground v.1.15,2013-09-22 12:45:00,
2013-09-22 07:50:00,59.2,51.6,29.87,North,0,0.0,-999.0,76,0.00,,,0.00,Wunderground v.1.15,2013-09-22 12:50:00,
2013-09-22 07:55:00,59.2,51.6,29.87,North,0,0.0,-999.0,76,0.00,,,0.00,Wunderground v.1.15,2013-09-22 12:55:00,
2013-09-22 08:00:00,59.2,51.6,29.87,North,0,0.0,-999.0,76,0.00,,,0.00,Wunderground v.1.15,2013-09-22 13:00:00,
2013-09-22 08:05:00,59.2,51.6,29.87,North,0,0.0,-999.0,76,0.00,,,0.00,Wunderground v.1.15,2013-09-22 13:05:00,
2013-09-22 08:10:00,59.2,51.6,29.87,North,0,0.0,-999.0,76,0.00,,,0.00,Wunderground v.1.15,2013-09-22 13:10:00,
2013-09-22 08:15:00,62.9,53.7,29.88,NNW,338,0.0,-999.0,72,0.00,,,0.00,Wunderground v.1.15,2013-09-22 13:15:00,
2013-09-22 08:20:00,62.9,53.7,29.88,NNW,338,0.0,-999.0,72,0.00,,,0.00,Wunderground v.1.15,2013-09-22 13:20:00,
2013-09-22 08:25:00,62.9,53.7,29.88,NNW,338,0.0,-999.0,72,0.00,,,0.00,Wunderground v.1.15,2013-09-22 13:25:00,
2013-09-22 08:30:00,62.9,53.7,29.88,NNW,338,0.0,-999.0,72,0.00,,,0.00,Wunderground v.1.15,2013-09-22 13:30:00,
2013-09-22 08:35:00,62.9,53.7,29.88,NNW,338,0.0,-999.0,72,0.00,,,0.00,Wunderground v.1.15,2013-09-22 13:35:00,
2013-09-22 08:40:00,62.9,53.7,29.88,NNW,338,0.0,-999.0,72,0.00,,,0.00,Wunderground v.1.15,2013-09-22 13:40:00,
2013-09-22 08:45:00,65.9,55.4,29.88,ENE,68,2.0,-999.0,69,0.00,,,0.00,Wunderground v.1.15,2013-09-22 13:45:00,
2013-09-22 08:50:00,65.9,55.4,29.88,ENE,68,2.0,-999.0,69,0.00,,,0.00,Wunderground v.1.15,2013-09-22 13:50:00,
2013-09-22 08:55:00,65.9,55.4,29.88,ENE,68,2.0,-999.0,69,0.00,,,0.00,Wunderground v.1.15,2013-09-22 13:55:00,
2013-09-22 09:00:00,65.9,55.4,29.88,ENE,68,2.0,-999.0,69,0.00,,,0.00,Wunderground v.1.15,2013-09-22 14:00:00,
2013-09-22 09:05:00,65.9,55.4,29.88,ENE,68,2.0,-999.0,69,0.00,,,0.00,Wunderground v.1.15,2013-09-22 14:05:00,
2013-09-22 09:10:00,65.9,55.4,29.88,ENE,68,2.0,-999.0,69,0.00,,,0.00,Wunderground v.1.15,2013-09-22 14:10:00,
2013-09-22 09:15:00,67.1,55.8,29.90,NE,45,3.0,-999.0,67,0.00,,,0.00,Wunderground v.1.15,2013-09-22 14:15:00,
2013-09-22 09:20:00,67.1,55.8,29.90,NE,45,3.0,-999.0,67,0.00,,,0.00,Wunderground v.1.15,2013-09-22 14:20:00,
2013-09-22 09:25:00,67.1,55.8,29.90,NE,45,3.0,-999.0,67,0.00,,,0.00,Wunderground v.1.15,2013-09-22 14:25:00,
2013-09-22 09:30:00,67.1,55.8,29.90,NE,45,3.0,-999.0,67,0.00,,,0.00,Wunderground v.1.15,2013-09-22 14:30:00,
2013-09-22 09:35:00,67.1,55.8,29.90,NE,45,3.0,-999.0,67,0.00,,,0.00,Wunderground v.1.15,2013-09-22 14:35:00,
2013-09-22 09:40:00,67.1,55.8,29.90,NE,45,3.0,-999.0,67,0.00,,,0.00,Wunderground v.1.15,2013-09-22 14:40:00,
2013-09-22 09:45:00,69.1,56.8,29.90,ENE,68,3.0,-999.0,65,0.00,,,0.00,Wunderground v.1.15,2013-09-22 14:45:00,
2013-09-22 09:50:00,69.1,56.8,29.90,ENE,68,3.0,-999.0,65,0.00,,,0.00,Wunderground v.1.15,2013-09-22 14:50:00,
2013-09-22 09:55:00,69.1,56.8,29.90,ENE,68,3.0,-999.0,65,0.00,,,0.00,Wunderground v.1.15,2013-09-22 14:55:00,
2013-09-22 10:00:00,69.1,56.8,29.90,ENE,68,3.0,-999.0,65,0.00,,,0.00,Wunderground v.1.15,2013-09-22 15:00:00,
2013-09-22 10:05:00,69.1,56.8,29.90,ENE,68,3.0,-999.0,65,0.00,,,0.00,Wunderground v.1.15,2013-09-22 15:05:00,
2013-09-22 10:10:00,69.1,56.8,29.90,ENE,68,3.0,-999.0,65,0.00,,,0.00,Wunderground v.1.15,2013-09-22 15:10:00,
2013-09-22 10:15:00,70.5,55.0,29.90,East,90,5.0,-999.0,58,0.00,,,0.00,Wunderground v.1.15,2013-09-22 15:15:00,
2013-09-22 10:20:00,70.5,55.0,29.90,East,90,5.0,-999.0,58,0.00,,,0.00,Wunderground v.1.15,2013-09-22 15:20:00,
2013-09-22 10:25:00,70.5,55.0,29.90,East,90,5.0,-999.0,58,0.00,,,0.00,Wunderground v.1.15,2013-09-22 15:25:00,
2013-09-22 10:30:00,70.5,55.0,29.90,East,90,5.0,-999.0,58,0.00,,,0.00,Wunderground v.1.15,2013-09-22 15:30:00,
2013-09-22 10:35:00,70.5,55.0,29.90,East,90,5.0,-999.0,58,0.00,,,0.00,Wunderground v.1.15,2013-09-22 15:35:00,
2013-09-22 10:40:00,70.5,55.0,29.90,East,90,5.0,-999.0,58,0.00,,,0.00,Wunderground v.1.15,2013-09-22 15:40:00,
2013-09-22 10:45:00,71.9,52.8,29.90,ENE,68,6.0,-999.0,51,0.00,,,0.00,Wunderground v.1.15,2013-09-22 15:45:00,
2013-09-22 10:50:00,71.9,52.8,29.90,ENE,68,6.0,-999.0,51,0.00,,,0.00,Wunderground v.1.15,2013-09-22 15:50:00,
2013-09-22 10:55:00,71.9,52.8,29.90,ENE,68,6.0,-999.0,51,0.00,,,0.00,Wunderground v.1.15,2013-09-22 15:55:00,
2013-09-22 11:00:00,71.9,52.8,29.90,ENE,68,6.0,-999.0,51,0.00,,,0.00,Wunderground v.1.15,2013-09-22 16:00:00,
2013-09-22 11:05:00,71.9,52.8,29.90,ENE,68,6.0,-999.0,51,0.00,,,0.00,Wunderground v.1.15,2013-09-22 16:05:00,
2013-09-22 11:10:00,71.9,52.8,29.90,ENE,68,6.0,-999.0,51,0.00,,,0.00,Wunderground v.1.15,2013-09-22 16:10:00,
2013-09-22 11:15:00,72.4,53.8,29.90,East,90,6.0,-999.0,52,0.00,,,0.00,Wunderground v.1.15,2013-09-22 16:15:00,
2013-09-22 11:20:00,72.4,53.8,29.90,East,90,6.0,-999.0,52,0.00,,,0.00,Wunderground v.1.15,2013-09-22 16:20:00,
2013-09-22 11:25:00,72.4,53.8,29.90,East,90,6.0,-999.0,52,0.00,,,0.00,Wunderground v.1.15,2013-09-22 16:25:00,
2013-09-22 11:30:00,72.4,53.8,29.90,East,90,6.0,-999.0,52,0.00,,,0.00,Wunderground v.1.15,2013-09-22 16:30:00,
2013-09-22 11:35:00,72.4,53.8,29.90,East,90,6.0,-999.0,52,0.00,,,0.00,Wunderground v.1.15,2013-09-22 16:35:00,
2013-09-22 11:40:00,72.4,53.8,29.90,East,90,6.0,-999.0,52,0.00,,,0.00,Wunderground v.1.15,2013-09-22 16:40:00,
2013-09-22 11:45:00,73.5,54.8,29.89,East,90,5.0,-999.0,52,0.00,,,0.00,Wunderground v.1.15,2013-09-22 16:45:00,
2013-09-22 11:50:00,73.5,54.8,29.89,East,90,5.0,-999.0,52,0.00,,,0.00,Wunderground v.1.15,2013-09-22 16:50:00,
2013-09-22 11:55:00,73.5,54.8,29.89,East,90,5.0,-999.0,52,0.00,,,0.00,Wunderground v.1.15,2013-09-22 16:55:00,
2013-09-22 12:00:00,73.5,54.8,29.89,East,90,5.0,-999.0,52,0.00,,,0.00,Wunderground v.1.15,2013-09-22 17:00:00,
2013-09-22 12:05:00,73.5,54.8,29.89,East,90,5.0,-999.0,52,0.00,,,0.00,Wunderground v.1.15,2013-09-22 17:05:00,
2013-09-22 12:10:00,73.5,54.8,29.89,East,90,5.0,-999.0,52,0.00,,,0.00,Wunderground v.1.15,2013-09-22 17:10:00,
2013-09-22 12:15:00,74.4,52.3,29.89,NE,45,6.0,-999.0,46,0.00,,,0.00,Wunderground v.1.15,2013-09-22 17:15:00,
2013-09-22 12:20:00,74.4,52.3,29.89,NE,45,6.0,-999.0,46,0.00,,,0.00,Wunderground v.1.15,2013-09-22 17:20:00,
2013-09-22 12:25:00,74.4,52.3,29.89,NE,45,6.0,-999.0,46,0.00,,,0.00,Wunderground v.1.15,2013-09-22 17:25:00,
2013-09-22 12:30:00,74.4,52.3,29.89,NE,45,6.0,-999.0,46,0.00,,,0.00,Wunderground v.1.15,2013-09-22 17:30:00,
2013-09-22 12:35:00,74.4,52.3,29.89,NE,45,6.0,-999.0,46,0.00,,,0.00,Wunderground v.1.15,2013-09-22 17:35:00,
2013-09-22 12:40:00,74.4,52.3,29.89,NE,45,6.0,-999.0,46,0.00,,,0.00,Wunderground v.1.15,2013-09-22 17:40:00,
2013-09-22 12:45:00,75.6,52.8,29.87,NE,45,5.0,-999.0,45,0.00,,,0.00,Wunderground v.1.15,2013-09-22 17:45:00,
2013-09-22 12:50:00,75.6,52.8,29.87,NE,45,5.0,-999.0,45,0.00,,,0.00,Wunderground v.1.15,2013-09-22 17:50:00,
2013-09-22 12:55:00,75.6,52.8,29.87,NE,45,5.0,-999.0,45,0.00,,,0.00,Wunderground v.1.15,2013-09-22 17:55:00,
2013-09-22 13:00:00,75.6,52.8,29.87,NE,45,5.0,-999.0,45,0.00,,,0.00,Wunderground v.1.15,2013-09-22 18:00:00,
2013-09-22 13:05:00,75.6,52.8,29.87,NE,45,5.0,-999.0,45,0.00,,,0.00,Wunderground v.1.15,2013-09-22 18:05:00,
2013-09-22 13:10:00,75.6,52.8,29.87,NE,45,5.0,-999.0,45,0.00,,,0.00,Wunderground v.1.15,2013-09-22 18:10:00,
2013-09-22 13:15:00,76.2,52.1,29.87,ENE,68,5.0,-999.0,43,0.00,,,0.00,Wunderground v.1.15,2013-09-22 18:15:00,
2013-09-22 13:20:00,76.2,52.1,29.87,ENE,68,5.0,-999.0,43,0.00,,,0.00,Wunderground v.1.15,2013-09-22 18:20:00,
2013-09-22 13:25:00,76.2,52.1,29.87,ENE,68,5.0,-999.0,43,0.00,,,0.00,Wunderground v.1.15,2013-09-22 18:25:00,
2013-09-22 13:30:00,76.2,52.1,29.87,ENE,68,5.0,-999.0,43,0.00,,,0.00,Wunderground v.1.15,2013-09-22 18:30:00,
2013-09-22 13:35:00,76.2,52.1,29.87,ENE,68,5.0,-999.0,43,0.00,,,0.00,Wunderground v.1.15,2013-09-22 18:35:00,
2013-09-22 13:40:00,76.2,52.1,29.87,ENE,68,5.0,-999.0,43,0.00,,,0.00,Wunderground v.1.15,2013-09-22 18:40:00,
2013-09-22 13:45:00,76.7,50.6,29.85,ENE,68,5.0,-999.0,40,0.00,,,0.00,Wunderground v.1.15,2013-09-22 18:45:00,
2013-09-22 13:50:00,76.7,50.6,29.85,ENE,68,5.0,-999.0,40,0.00,,,0.00,Wunderground v.1.15,2013-09-22 18:50:00,
2013-09-22 13:55:00,76.7,50.6,29.85,ENE,68,5.0,-999.0,40,0.00,,,0.00,Wunderground v.1.15,2013-09-22 18:55:00,
2013-09-22 14:00:00,76.7,50.6,29.85,ENE,68,5.0,-999.0,40,0.00,,,0.00,Wunderground v.1.15,2013-09-22 19:00:00,
2013-09-22 14:05:00,76.7,50.6,29.85,ENE,68,5.0,-999.0,40,0.00,,,0.00,Wunderground v.1.15,2013-09-22 19:05:00,
2013-09-22 14:10:00,76.7,50.6,29.85,ENE,68,5.0,-999.0,40,0.00,,,0.00,Wunderground v.1.15,2013-09-22 19:10:00,
2013-09-22 14:15:00,77.6,52.7,29.83,East,90,6.0,-999.0,42,0.00,,,0.00,Wunderground v.1.15,2013-09-22 19:15:00,
2013-09-22 14:20:00,77.6,52.7,29.83,East,90,6.0,-999.0,42,0.00,,,0.00,Wunderground v.1.15,2013-09-22 19:20:00,
2013-09-22 14:25:00,77.6,52.7,29.83,East,90,6.0,-999.0,42,0.00,,,0.00,Wunderground v.1.15,2013-09-22 19:25:00,
2013-09-22 14:30:00,77.6,52.7,29.83,East,90,6.0,-999.0,42,0.00,,,0.00,Wunderground v.1.15,2013-09-22 19:30:00,
2013-09-22 14:35:00,77.6,52.7,29.83,East,90,6.0,-999.0,42,0.00,,,0.00,Wunderground v.1.15,2013-09-22 19:35:00,
2013-09-22 14:40:00,77.6,52.7,29.83,East,90,6.0,-999.0,42,0.00,,,0.00,Wunderground v.1.15,2013-09-22 19:40:00,
2013-09-22 14:45:00,78.1,53.1,29.82,NE,45,5.0,-999.0,42,0.00,,,0.00,Wunderground v.1.15,2013-09-22 19:45:00,
2013-09-22 14:50:00,78.1,53.1,29.82,NE,45,5.0,-999.0,42,0.00,,,0.00,Wunderground v.1.15,2013-09-22 19:50:00,
2013-09-22 14:55:00,78.1,53.1,29.82,NE,45,5.0,-999.0,42,0.00,,,0.00,Wunderground v.1.15,2013-09-22 19:55:00,
2013-09-22 15:00:00,78.1,53.1,29.82,NE,45,5.0,-999.0,42,0.00,,,0.00,Wunderground v.1.15,2013-09-22 20:00:00,
2013-09-22 15:05:00,78.1,53.1,29.82,NE,45,5.0,-999.0,42,0.00,,,0.00,Wunderground v.1.15,2013-09-22 20:05:00,
2013-09-22 15:10:00,78.1,53.1,29.82,NE,45,5.0,-999.0,42,0.00,,,0.00,Wunderground v.1.15,2013-09-22 20:10:00,
2013-09-22 15:15:00,78.9,51.1,29.81,East,90,6.0,-999.0,38,0.00,,,0.00,Wunderground v.1.15,2013-09-22 20:15:00,
2013-09-22 15:20:00,78.9,51.1,29.81,East,90,6.0,-999.0,38,0.00,,,0.00,Wunderground v.1.15,2013-09-22 20:20:00,
2013-09-22 15:25:00,78.9,51.1,29.81,East,90,6.0,-999.0,38,0.00,,,0.00,Wunderground v.1.15,2013-09-22 20:25:00,
2013-09-22 15:30:00,78.9,51.1,29.81,East,90,6.0,-999.0,38,0.00,,,0.00,Wunderground v.1.15,2013-09-22 20:30:00,
2013-09-22 15:35:00,78.9,51.1,29.81,East,90,6.0,-999.0,38,0.00,,,0.00,Wunderground v.1.15,2013-09-22 20:35:00,
2013-09-22 15:40:00,78.9,51.1,29.81,East,90,6.0,-999.0,38,0.00,,,0.00,Wunderground v.1.15,2013-09-22 20:40:00,
2013-09-22 15:45:00,79.4,48.6,29.79,East,90,5.0,-999.0,34,0.00,,,0.00,Wunderground v.1.15,2013-09-22 20:45:00,
2013-09-22 15:50:00,79.4,48.6,29.79,East,90,5.0,-999.0,34,0.00,,,0.00,Wunderground v.1.15,2013-09-22 20:50:00,
2013-09-22 15:55:00,79.4,48.6,29.79,East,90,5.0,-999.0,34,0.00,,,0.00,Wunderground v.1.15,2013-09-22 20:55:00,
2013-09-22 16:00:00,79.4,48.6,29.79,East,90,5.0,-999.0,34,0.00,,,0.00,Wunderground v.1.15,2013-09-22 21:00:00,
2013-09-22 16:05:00,79.4,48.6,29.79,East,90,5.0,-999.0,34,0.00,,,0.00,Wunderground v.1.15,2013-09-22 21:05:00,
2013-09-22 16:10:00,79.4,48.6,29.79,East,90,5.0,-999.0,34,0.00,,,0.00,Wunderground v.1.15,2013-09-22 21:10:00,
2013-09-22 16:15:00,79.8,50.5,29.78,ENE,68,5.0,-999.0,36,0.00,,,0.00,Wunderground v.1.15,2013-09-22 21:15:00,
2013-09-22 16:20:00,79.8,50.5,29.78,ENE,68,5.0,-999.0,36,0.00,,,0.00,Wunderground v.1.15,2013-09-22 21:20:00,
2013-09-22 16:25:00,79.8,50.5,29.78,ENE,68,5.0,-999.0,36,0.00,,,0.00,Wunderground v.1.15,2013-09-22 21:25:00,
2013-09-22 16:30:00,79.8,50.5,29.78,ENE,68,5.0,-999.0,36,0.00,,,0.00,Wunderground v.1.15,2013-09-22 21:30:00,
2013-09-22 16:35:00,79.8,50.5,29.78,ENE,68,5.0,-999.0,36,0.00,,,0.00,Wunderground v.1.15,2013-09-22 21:35:00,
2013-09-22 16:40:00,79.8,50.5,29.78,ENE,68,5.0,-999.0,36,0.00,,,0.00,Wunderground v.1.15,2013-09-22 21:40:00,
2013-09-22 16:45:00,80.2,51.6,29.78,East,90,4.0,-999.0,37,0.00,,,0.00,Wunderground v.1.15,2013-09-22 21:45:00,
2013-09-22 16:50:00,80.2,51.6,29.78,East,90,4.0,-999.0,37,0.00,,,0.00,Wunderground v.1.15,2013-09-22 21:50:00,
2013-09-22 16:55:00,80.2,51.6,29.78,East,90,4.0,-999.0,37,0.00,,,0.00,Wunderground v.1.15,2013-09-22 21:55:00,
2013-09-22 17:00:00,80.2,51.6,29.78,East,90,4.0,-999.0,37,0.00,,,0.00,Wunderground v.1.15,2013-09-22 22:00:00,
2013-09-22 17:05:00,80.2,51.6,29.78,East,90,4.0,-999.0,37,0.00,,,0.00,Wunderground v.1.15,2013-09-22 22:05:00,
2013-09-22 17:10:00,80.2,51.6,29.78,East,90,4.0,-999.0,37,0.00,,,0.00,Wunderground v.1.15,2013-09-22 22:10:00,
2013-09-22 17:15:00,79.5,50.2,29.77,ENE,68,5.0,-999.0,36,0.00,,,0.00,Wunderground v.1.15,2013-09-22 22:15:00,
2013-09-22 17:20:00,79.5,50.2,29.77,ENE,68,5.0,-999.0,36,0.00,,,0.00,Wunderground v.1.15,2013-09-22 22:20:00,
2013-09-22 17:25:00,79.5,50.2,29.77,ENE,68,5.0,-999.0,36,0.00,,,0.00,Wunderground v.1.15,2013-09-22 22:25:00,
2013-09-22 17:30:00,79.5,50.2,29.77,ENE,68,5.0,-999.0,36,0.00,,,0.00,Wunderground v.1.15,2013-09-22 22:30:00,
2013-09-22 17:35:00,79.5,50.2,29.77,ENE,68,5.0,-999.0,36,0.00,,,0.00,Wunderground v.1.15,2013-09-22 22:35:00,
2013-09-22 17:40:00,79.5,50.2,29.77,ENE,68,5.0,-999.0,36,0.00,,,0.00,Wunderground v.1.15,2013-09-22 22:40:00,
2013-09-22 17:45:00,79.3,52.2,29.77,ENE,68,5.0,-999.0,39,0.00,,,0.00,Wunderground v.1.15,2013-09-22 22:45:00,
2013-09-22 17:50:00,79.3,52.2,29.77,ENE,68,5.0,-999.0,39,0.00,,,0.00,Wunderground v.1.15,2013-09-22 22:50:00,
2013-09-22 17:55:00,79.3,52.2,29.77,ENE,68,5.0,-999.0,39,0.00,,,0.00,Wunderground v.1.15,2013-09-22 22:55:00,
2013-09-22 18:00:00,79.3,52.2,29.77,ENE,68,5.0,-999.0,39,0.00,,,0.00,Wunderground v.1.15,2013-09-22 23:00:00,
2013-09-22 18:05:00,79.3,52.2,29.77,ENE,68,5.0,-999.0,39,0.00,,,0.00,Wunderground v.1.15,2013-09-22 23:05:00,
2013-09-22 18:10:00,79.3,52.2,29.77,ENE,68,5.0,-999.0,39,0.00,,,0.00,Wunderground v.1.15,2013-09-22 23:10:00,
2013-09-22 18:15:00,78.6,50.1,29.77,East,90,4.0,-999.0,37,0.00,,,0.00,Wunderground v.1.15,2013-09-22 23:15:00,
2013-09-22 18:20:00,78.6,50.1,29.77,East,90,4.0,-999.0,37,0.00,,,0.00,Wunderground v.1.15,2013-09-22 23:20:00,
2013-09-22 18:25:00,78.6,50.1,29.77,East,90,4.0,-999.0,37,0.00,,,0.00,Wunderground v.1.15,2013-09-22 23:25:00,
2013-09-22 18:30:00,78.6,50.1,29.77,East,90,4.0,-999.0,37,0.00,,,0.00,Wunderground v.1.15,2013-09-22 23:30:00,
2013-09-22 18:35:00,78.6,50.1,29.77,East,90,4.0,-999.0,37,0.00,,,0.00,Wunderground v.1.15,2013-09-22 23:35:00,
2013-09-22 18:40:00,78.6,50.1,29.77,East,90,4.0,-999.0,37,0.00,,,0.00,Wunderground v.1.15,2013-09-22 23:40:00,
2013-09-22 18:45:00,77.0,52.8,29.77,East,90,3.0,-999.0,43,0.00,,,0.00,Wunderground v.1.15,2013-09-22 23:45:00,
2013-09-22 18:50:00,77.0,52.8,29.77,East,90,3.0,-999.0,43,0.00,,,0.00,Wunderground v.1.15,2013-09-22 23:50:00,
2013-09-22 18:55:00,77.0,52.8,29.77,East,90,3.0,-999.0,43,0.00,,,0.00,Wunderground v.1.15,2013-09-22 23:55:00,
2013-09-22 19:00:00,77.0,52.8,29.77,East,90,3.0,-999.0,43,0.00,,,0.00,Wunderground v.1.15,2013-09-23 00:00:00,
2013-09-22 19:05:00,77.0,52.8,29.77,East,90,3.0,-999.0,43,0.00,,,0.00,Wunderground v.1.15,2013-09-23 00:05:00,
2013-09-22 19:10:00,77.0,52.8,29.77,East,90,3.0,-999.0,43,0.00,,,0.00,Wunderground v.1.15,2013-09-23 00:10:00,
2013-09-22 19:15:00,73.1,53.9,29.77,ENE,68,0.0,-999.0,51,0.00,,,0.00,Wunderground v.1.15,2013-09-23 00:15:00,
2013-09-22 19:20:00,73.1,53.9,29.77,ENE,68,0.0,-999.0,51,0.00,,,0.00,Wunderground v.1.15,2013-09-23 00:20:00,
2013-09-22 19:25:00,73.1,53.9,29.77,ENE,68,0.0,-999.0,51,0.00,,,0.00,Wunderground v.1.15,2013-09-23 00:25:00,
2013-09-22 19:30:00,73.1,53.9,29.77,ENE,68,0.0,-999.0,51,0.00,,,0.00,Wunderground v.1.15,2013-09-23 00:30:00,
2013-09-22 19:35:00,73.1,53.9,29.77,ENE,68,0.0,-999.0,51,0.00,,,0.00,Wunderground v.1.15,2013-09-23 00:35:00,
2013-09-22 19:40:00,73.1,53.9,29.77,ENE,68,0.0,-999.0,51,0.00,,,0.00,Wunderground v.1.15,2013-09-23 00:40:00,
2013-09-22 19:45:00,70.0,54.5,29.77,South,180,0.0,-999.0,58,0.00,,,0.00,Wunderground v.1.15,2013-09-23 00:45:00,
2013-09-22 19:50:00,70.0,54.5,29.77,South,180,0.0,-999.0,58,0.00,,,0.00,Wunderground v.1.15,2013-09-23 00:50:00,
2013-09-22 19:55:00,70.0,54.5,29.77,South,180,0.0,-999.0,58,0.00,,,0.00,Wunderground v.1.15,2013-09-23 00:55:00,
2013-09-22 20:00:00,70.0,54.5,29.77,South,180,0.0,-999.0,58,0.00,,,0.00,Wunderground v.1.15,2013-09-23 01:00:00,
2013-09-22 20:05:00,70.0,54.5,29.77,South,180,0.0,-999.0,58,0.00,,,0.00,Wunderground v.1.15,2013-09-23 01:05:00,
2013-09-22 20:10:00,70.0,54.5,29.77,South,180,0.0,-999.0,58,0.00,,,0.00,Wunderground v.1.15,2013-09-23 01:10:00,
2013-09-22 20:15:00,68.9,54.0,29.78,N/A,-737280,0.0,-999.0,59,0.00,,,0.00,Wunderground v.1.15,2013-09-23 01:15:00,
2013-09-22 20:20:00,68.9,54.0,29.78,N/A,-737280,0.0,-999.0,59,0.00,,,0.00,Wunderground v.1.15,2013-09-23 01:20:00,
2013-09-22 20:25:00,68.9,54.0,29.78,N/A,-737280,0.0,-999.0,59,0.00,,,0.00,Wunderground v.1.15,2013-09-23 01:25:00,
2013-09-22 20:30:00,68.9,54.0,29.78,N/A,-737280,0.0,-999.0,59,0.00,,,0.00,Wunderground v.1.15,2013-09-23 01:30:00,
2013-09-22 20:35:00,68.9,54.0,29.78,N/A,-737280,0.0,-999.0,59,0.00,,,0.00,Wunderground v.1.15,2013-09-23 01:35:00,
2013-09-22 20:40:00,68.9,54.0,29.78,N/A,-737280,0.0,-999.0,59,0.00,,,0.00,Wunderground v.1.15,2013-09-23 01:40:00,
2013-09-22 20:45:00,67.5,56.6,29.78,N/A,-737280,0.0,-999.0,68,0.00,,,0.00,Wunderground v.1.15,2013-09-23 01:45:00,
2013-09-22 20:50:00,67.5,56.6,29.78,N/A,-737280,0.0,-999.0,68,0.00,,,0.00,Wunderground v.1.15,2013-09-23 01:50:00,
2013-09-22 21:00:00,67.5,56.6,29.78,N/A,-737280,0.0,-999.0,68,0.00,,,0.00,Wunderground v.1.15,2013-09-23 02:00:00,
2013-09-22 21:05:00,67.5,56.6,29.78,N/A,-737280,0.0,-999.0,68,0.00,,,0.00,Wunderground v.1.15,2013-09-23 02:05:00,
2013-09-22 21:10:00,67.5,56.6,29.78,N/A,-737280,0.0,-999.0,68,0.00,,,0.00,Wunderground v.1.15,2013-09-23 02:10:00,
2013-09-22 21:15:00,64.9,54.5,29.78,N/A,-737280,0.0,-999.0,69,0.00,,,0.00,Wunderground v.1.15,2013-09-23 02:15:00,
2013-09-22 21:20:00,64.9,54.5,29.78,N/A,-737280,0.0,-999.0,69,0.00,,,0.00,Wunderground v.1.15,2013-09-23 02:20:00,
2013-09-22 21:25:00,64.9,54.5,29.78,N/A,-737280,0.0,-999.0,69,0.00,,,0.00,Wunderground v.1.15,2013-09-23 02:25:00,
2013-09-22 21:30:00,64.9,54.5,29.78,N/A,-737280,0.0,-999.0,69,0.00,,,0.00,Wunderground v.1.15,2013-09-23 02:30:00,
2013-09-22 21:35:00,64.9,54.5,29.78,N/A,-737280,0.0,-999.0,69,0.00,,,0.00,Wunderground v.1.15,2013-09-23 02:35:00,
2013-09-22 21:40:00,64.9,54.5,29.78,N/A,-737280,0.0,-999.0,69,0.00,,,0.00,Wunderground v.1.15,2013-09-23 02:40:00,
2013-09-22 21:45:00,65.1,53.5,29.79,N/A,-737280,0.0,-999.0,66,0.00,,,0.00,Wunderground v.1.15,2013-09-23 02:45:00,
2013-09-22 21:50:00,65.1,53.5,29.79,N/A,-737280,0.0,-999.0,66,0.00,,,0.00,Wunderground v.1.15,2013-09-23 02:50:00,
2013-09-22 21:55:00,65.1,53.5,29.79,N/A,-737280,0.0,-999.0,66,0.00,,,0.00,Wunderground v.1.15,2013-09-23 02:55:00,
2013-09-22 22:00:00,65.1,53.5,29.79,N/A,-737280,0.0,-999.0,66,0.00,,,0.00,Wunderground v.1.15,2013-09-23 03:00:00,
2013-09-22 22:05:00,65.1,53.5,29.79,N/A,-737280,0.0,-999.0,66,0.00,,,0.00,Wunderground v.1.15,2013-09-23 03:05:00,
2013-09-22 22:10:00,65.1,53.5,29.79,N/A,-737280,0.0,-999.0,66,0.00,,,0.00,Wunderground v.1.15,2013-09-23 03:10:00,
2013-09-22 22:15:00,65.0,53.4,29.80,N/A,-737280,0.0,-999.0,66,0.00,,,0.00,Wunderground v.1.15,2013-09-23 03:15:00,
2013-09-22 22:20:00,65.0,53.4,29.80,N/A,-737280,0.0,-999.0,66,0.00,,,0.00,Wunderground v.1.15,2013-09-23 03:20:00,
2013-09-22 22:25:00,65.0,53.4,29.80,N/A,-737280,0.0,-999.0,66,0.00,,,0.00,Wunderground v.1.15,2013-09-23 03:25:00,
2013-09-22 22:30:00,65.0,53.4,29.80,N/A,-737280,0.0,-999.0,66,0.00,,,0.00,Wunderground v.1.15,2013-09-23 03:30:00,
2013-09-22 22:35:00,65.0,53.4,29.80,N/A,-737280,0.0,-999.0,66,0.00,,,0.00,Wunderground v.1.15,2013-09-23 03:35:00,
2013-09-22 22:40:00,65.0,53.4,29.80,N/A,-737280,0.0,-999.0,66,0.00,,,0.00,Wunderground v.1.15,2013-09-23 03:40:00,
2013-09-22 22:45:00,64.9,53.3,29.80,N/A,-737280,0.0,-999.0,66,0.00,,,0.00,Wunderground v.1.15,2013-09-23 03:45:00,
2013-09-22 22:50:00,64.9,53.3,29.80,N/A,-737280,0.0,-999.0,66,0.00,,,0.00,Wunderground v.1.15,2013-09-23 03:50:00,
2013-09-22 22:55:00,64.9,53.3,29.80,N/A,-737280,0.0,-999.0,66,0.00,,,0.00,Wunderground v.1.15,2013-09-23 03:55:00,
2013-09-22 23:00:00,64.9,53.3,29.80,N/A,-737280,0.0,-999.0,66,0.00,,,0.00,Wunderground v.1.15,2013-09-23 04:00:00,
2013-09-22 23:05:00,64.9,53.3,29.80,N/A,-737280,0.0,-999.0,66,0.00,,,0.00,Wunderground v.1.15,2013-09-23 04:05:00,
2013-09-22 23:10:00,64.9,53.3,29.80,N/A,-737280,0.0,-999.0,66,0.00,,,0.00,Wunderground v.1.15,2013-09-23 04:10:00,
2013-09-22 23:15:00,63.9,53.5,29.80,N/A,-737280,0.0,-999.0,69,0.00,,,0.00,Wunderground v.1.15,2013-09-23 04:15:00,
2013-09-22 23:20:00,63.9,53.5,29.80,N/A,-737280,0.0,-999.0,69,0.00,,,0.00,Wunderground v.1.15,2013-09-23 04:20:00,
2013-09-22 23:25:00,63.9,53.5,29.80,N/A,-737280,0.0,-999.0,69,0.00,,,0.00,Wunderground v.1.15,2013-09-23 04:25:00,
2013-09-22 23:30:00,63.9,53.5,29.80,N/A,-737280,0.0,-999.0,69,0.00,,,0.00,Wunderground v.1.15,2013-09-23 04:30:00,
2013-09-22 23:35:00,63.9,53.5,29.80,N/A,-737280,0.0,-999.0,69,0.00,,,0.00,Wunderground v.1.15,2013-09-23 04:35:00,
2013-09-22 23:40:00,63.9,53.5,29.80,N/A,-737280,0.0,-999.0,69,0.00,,,0.00,Wunderground v.1.15,2013-09-23 04:40:00,
2013-09-22 23:45:00,64.1,52.9,29.80,N/A,-737280,0.0,-999.0,67,0.00,,,0.00,Wunderground v.1.15,2013-09-23 04:45:00,
2013-09-22 23:50:00,64.1,52.9,29.80,N/A,-737280,0.0,-999.0,67,0.00,,,0.00,Wunderground v.1.15,2013-09-23 04:50:00,
2013-09-22 23:55:00,64.1,52.9,29.80,N/A,-737280,0.0,-999.0,67,0.00,,,0.00,Wunderground v.1.15,2013-09-23 04:55:00,